Wardsboro, VT (05355)

12:50 PM EDT on September 05, 2015 (GMT -0400)
2 Miles up a dirt road | | Change Station
CLOSE
Current Station
Personal Weather Station
Location: East Dover, VT
Elevation: 1699 ft
Nearby Weather Stations

Elev 1699 ft 42.98 °N, 72.78 °W | Updated 20 seconds ago

Clear
Clear
78.1 °F
Feels Like 80 °F
N
0.0
Wind Variable Wind from WSW
Gusts 0.0 mph

Today
High -- | Low -- °F
--% Chance of Precip.
Yesterday
High -- | Low -- °F
Precip. -- in
6:19 AM 7:19 PM
Waning Gibbous, 47% visible
Pressure 30.26 in
Visibility 10.0 miles
Clouds Clear
Heat Index 80 °F
Dew Point 61 °F
Humidity 56%
Rainfall 0.00 in
Snow Depth Not available.
UV 8 out of 12
Pollen 8.70 out of 12
Air Quality Not available.
Flu Activity Not available.
METAR KDDH 051554Z AUTO VRB03KT 10SM CLR 25/14 A3027 RMK AO2 SLP246 T02500144
Pressure 30.26 in
Visibility 10.0 miles
Clouds Clear
Heat Index 80 °F
Dew Point 61 °F
Humidity 56%
Rainfall 0.00 in
Snow Depth Not available.
UV 8 out of 12
Pollen 8.70 out of 12
Air Quality Not available.
Flu Activity Not available.
METAR KDDH 051554Z AUTO VRB03KT 10SM CLR 25/14 A3027 RMK AO2 SLP246 T02500144

10-Day Weather Forecast

×

Almanac

Astronomy

Sep. 05, 2015 Rise Set
Actual Time
Civil Twilight
Nautical Twilight
Astronomical Twilight
Moon
Length of Visible Light
Length of Day
Tomorrow will be .
, % of the Moon is Illuminated

Today's Extremes

State Highs State Lows

Community

WunderPhotos

Upload Photos

1,852,498 photos uploaded!

WunderBlogs® & News

Nearby

Air Quality

  Air Quality AQ Index Pollutant
Not available.

Snow Depth

Station Depth Elevation

Earthquake Activity

City Distance Mag. Time & Date
Minimum magnitude displayed is 2.5.

Coastal Water Temperatures

Place Temperature

Stations

Nearby Weather Stations

Station Location Temp. Windchill Dew Point Humidity Wind Precip. Elev Updated Type